Blackhawk Village, Iowa
Current Conditions -  °F | °C
As of 12:54 PM on Sunday 21 Dec 2014 (Local Time) from KALO Reporting Station
Haze Haze  
Wind Chill: 29°   Ceiling: 900
Heat Index: 38°   Visibility: 5mi
Dew Point: 36°   Wind: 15mph
Humidity: 93%   Direction: 180°S
Pressure: 29.88"   Gusts: 25mph
Location:  42.5035°N, 92.4936°W
Report Text: KALO 211854Z 18013G22KT 5SM BR OVC009 03/02 A2988 RMK AO2 SLP126 T00330022
Loading
Personal Weather Stations






























Interactive Weather Map New forecast layout! Learn more

10-Day Weather Forecast

Advertisements
Track Severe Weather on mobile